createdAt,value
2023-01-20T00:01:28.083Z,35.30
2023-01-20T00:03:56.325Z,29.55
2023-01-20T00:06:24.261Z,15.23
2023-01-20T00:08:52.370Z,15.82
2023-01-20T00:11:19.465Z,15.23
2023-01-20T00:13:45.973Z,18.52
2023-01-20T00:16:13.115Z,18.63
2023-01-20T00:18:40.510Z,33.00
2023-01-20T00:21:12.777Z,34.88
2023-01-20T00:23:40.120Z,32.10
2023-01-20T00:26:11.054Z,34.08
2023-01-20T00:28:38.281Z,32.65
2023-01-20T00:31:10.846Z,33.92
2023-01-20T00:33:37.312Z,22.40
2023-01-20T00:36:03.924Z,29.20
2023-01-20T00:38:30.371Z,34.75
2023-01-20T00:40:56.963Z,16.17
2023-01-20T00:43:23.485Z,9.60
2023-01-20T00:45:49.902Z,29.23
2023-01-20T00:48:16.384Z,9.00
2023-01-20T00:50:43.390Z,26.75
2023-01-20T00:53:10.242Z,22.33
2023-01-20T00:55:36.708Z,28.63
2023-01-20T00:58:03.157Z,23.50
2023-01-20T01:00:29.674Z,12.07
2023-01-20T01:02:56.257Z,33.85
2023-01-20T01:05:23.247Z,38.30
2023-01-20T01:07:49.664Z,24.75
2023-01-20T01:10:16.904Z,24.88
2023-01-20T01:12:43.472Z,38.03
2023-01-20T01:15:10.549Z,24.48
2023-01-20T01:17:37.136Z,24.38
2023-01-20T01:20:04.397Z,29.33
2023-01-20T01:22:32.830Z,31.27
2023-01-20T01:24:59.248Z,33.92
2023-01-20T01:27:28.076Z,38.05
2023-01-20T01:29:55.589Z,38.72
2023-01-20T01:32:22.868Z,42.17
2023-01-20T01:34:49.401Z,27.33
2023-01-20T01:37:15.883Z,42.03
2023-01-20T01:39:42.305Z,34.13
2023-01-20T01:42:20.469Z,41.88
2023-01-20T01:45:12.407Z,38.28
2023-01-20T01:47:49.313Z,40.47
2023-01-20T01:50:26.853Z,10.88
2023-01-20T01:52:55.754Z,37.70
2023-01-20T01:55:27.318Z,37.42
2023-01-20T01:57:56.130Z,39.53
2023-01-20T02:00:22.980Z,34.13
2023-01-20T02:02:49.598Z,32.95
2023-01-20T02:05:17.944Z,24.75
2023-01-20T02:07:47.478Z,34.20
2023-01-20T02:10:15.886Z,27.80
2023-01-20T02:12:49.411Z,28.77
2023-01-20T02:15:17.576Z,10.88
2023-01-20T02:18:00.563Z,36.70
2023-01-20T02:20:45.865Z,31.75
2023-01-20T02:23:27.439Z,34.55
2023-01-20T02:26:16.421Z,14.20
2023-01-20T02:29:04.424Z,19.95
2023-01-20T02:32:07.892Z,6.18
2023-01-20T02:35:01.935Z,19.38
2023-01-20T02:37:33.443Z,23.95
2023-01-20T02:40:08.947Z,18.30
2023-01-20T02:42:45.722Z,16.73
2023-01-20T02:45:34.106Z,16.55
2023-01-20T02:48:26.412Z,11.25
2023-01-20T02:51:05.271Z,25.75
2023-01-20T02:53:40.990Z,16.23
2023-01-20T02:56:09.314Z,17.23
2023-01-20T02:58:57.535Z,27.00
2023-01-20T03:01:31.670Z,20.13
2023-01-20T03:04:01.076Z,32.50
2023-01-20T03:06:38.246Z,19.92
2023-01-20T03:09:10.042Z,16.48
2023-01-20T03:11:43.531Z,32.20
2023-01-20T03:14:13.533Z,35.17
2023-01-20T03:16:41.423Z,31.83
2023-01-20T03:19:08.193Z,30.15
2023-01-20T03:21:35.253Z,29.58
2023-01-20T03:24:04.199Z,13.75
2023-01-20T03:26:31.273Z,25.90
2023-01-20T03:28:59.035Z,11.82
2023-01-20T03:31:36.552Z,28.23
2023-01-20T03:34:10.991Z,23.73
2023-01-20T03:36:38.777Z,13.88
2023-01-20T03:39:06.147Z,27.05
2023-01-20T03:42:10.084Z,33.00
2023-01-20T03:45:06.818Z,10.10
2023-01-20T03:47:45.148Z,29.23
2023-01-20T03:50:23.267Z,35.40
2023-01-20T03:52:57.975Z,31.17
2023-01-20T03:55:34.198Z,34.00
2023-01-20T03:58:04.809Z,32.47
2023-01-20T04:00:35.455Z,26.40
2023-01-20T04:03:07.536Z,19.10
2023-01-20T04:05:34.867Z,32.30
2023-01-20T04:08:05.987Z,13.55
2023-01-20T04:10:35.120Z,22.90
2023-01-20T04:13:01.661Z,31.17
2023-01-20T04:15:32.812Z,36.33
2023-01-20T04:18:11.088Z,32.63
2023-01-20T04:20:37.800Z,23.40
2023-01-20T04:23:06.463Z,25.58
2023-01-20T04:25:33.111Z,35.88
2023-01-20T04:27:59.647Z,34.45
2023-01-20T04:30:26.217Z,12.85
2023-01-20T04:32:52.670Z,23.48
2023-01-20T04:35:20.243Z,26.00
2023-01-20T04:37:46.751Z,19.83
2023-01-20T04:40:13.508Z,30.77
2023-01-20T04:42:40.037Z,30.40
2023-01-20T04:45:06.937Z,33.67
2023-01-20T04:47:33.852Z,31.58
2023-01-20T04:50:00.638Z,27.45
2023-01-20T04:52:27.116Z,26.70
2023-01-20T04:54:53.577Z,22.58
2023-01-20T04:57:20.033Z,28.75
2023-01-20T04:59:46.476Z,26.35
2023-01-20T05:02:12.950Z,20.90
2023-01-20T05:04:39.482Z,18.55
2023-01-20T05:07:05.965Z,26.80
2023-01-20T05:09:32.446Z,22.00
2023-01-20T05:11:58.941Z,11.88
2023-01-20T05:14:25.461Z,22.50
2023-01-20T05:16:51.868Z,15.45
2023-01-20T05:19:18.357Z,27.05
2023-01-20T05:21:44.844Z,13.85
2023-01-20T05:24:11.405Z,20.50
2023-01-20T05:26:37.841Z,16.52
2023-01-20T05:29:04.523Z,9.88
2023-01-20T05:31:31.360Z,9.73
2023-01-20T05:33:58.209Z,29.23
2023-01-20T05:36:24.666Z,10.43
2023-01-20T05:38:51.112Z,25.35
2023-01-20T05:41:17.550Z,10.65
2023-01-20T05:43:44.033Z,16.48
2023-01-20T05:46:10.625Z,9.90
2023-01-20T05:48:37.153Z,13.65
2023-01-20T05:51:03.822Z,14.02
2023-01-20T05:53:30.260Z,7.70
2023-01-20T05:56:04.145Z,17.65
2023-01-20T05:58:31.331Z,10.00
2023-01-20T06:01:12.898Z,8.57
2023-01-20T06:03:39.842Z,10.73
2023-01-20T06:06:14.223Z,13.63
2023-01-20T06:08:41.039Z,14.07
2023-01-20T06:11:07.517Z,13.15
2023-01-20T06:13:35.378Z,18.50
2023-01-20T06:16:01.980Z,8.38
2023-01-20T06:18:30.122Z,22.42
2023-01-20T06:20:58.868Z,15.85
2023-01-20T06:23:26.183Z,11.73
2023-01-20T06:26:04.710Z,20.60
2023-01-20T06:28:32.895Z,17.38
2023-01-20T06:31:03.423Z,18.50
2023-01-20T06:33:30.424Z,8.13
2023-01-20T06:35:57.618Z,19.90
2023-01-20T06:38:26.113Z,16.98
2023-01-20T06:41:00.784Z,9.88
2023-01-20T06:43:34.189Z,13.85
2023-01-20T06:46:05.813Z,12.98
2023-01-20T06:48:32.629Z,10.70
2023-01-20T06:51:08.093Z,18.15
2023-01-20T06:53:34.660Z,11.00
2023-01-20T06:56:01.751Z,8.63
2023-01-20T06:58:32.760Z,16.38
2023-01-20T07:01:08.843Z,18.85
2023-01-20T07:03:36.652Z,18.55
2023-01-20T07:06:20.116Z,14.70
2023-01-20T07:08:46.824Z,13.05
2023-01-20T07:11:13.354Z,17.38
2023-01-20T07:13:39.917Z,13.60
2023-01-20T07:16:08.337Z,20.75
2023-01-20T07:18:36.899Z,24.63
2023-01-20T07:21:03.640Z,7.07
2023-01-20T07:23:32.128Z,16.17
2023-01-20T07:26:04.411Z,18.13
2023-01-20T07:28:32.254Z,20.33
2023-01-20T07:31:06.350Z,9.52
2023-01-20T07:33:33.395Z,17.45
2023-01-20T07:36:00.267Z,21.35
2023-01-20T07:38:26.774Z,17.83
2023-01-20T07:40:53.374Z,18.52
2023-01-20T07:43:19.824Z,19.45
2023-01-20T07:45:46.354Z,6.38
2023-01-20T07:48:12.856Z,16.20
2023-01-20T07:50:39.307Z,19.80
2023-01-20T07:53:05.778Z,16.13
2023-01-20T07:55:33.727Z,3.75
2023-01-20T07:58:00.191Z,10.82
2023-01-20T08:00:26.783Z,14.35
2023-01-20T08:02:53.490Z,16.27
2023-01-20T08:05:19.943Z,20.15
2023-01-20T08:07:51.174Z,11.20
2023-01-20T08:10:17.732Z,20.48
2023-01-20T08:12:44.594Z,17.98
2023-01-20T08:15:11.437Z,16.95
2023-01-20T08:17:38.013Z,18.98
2023-01-20T08:20:06.075Z,14.93
2023-01-20T08:22:34.477Z,12.10
2023-01-20T08:25:00.990Z,8.65
2023-01-20T08:27:27.575Z,18.27
2023-01-20T08:29:55.594Z,22.67
2023-01-20T08:32:22.352Z,15.63
2023-01-20T08:34:48.947Z,14.45
2023-01-20T08:37:15.665Z,12.18
2023-01-20T08:39:42.271Z,11.80
2023-01-20T08:42:08.863Z,16.58
2023-01-20T08:44:35.535Z,12.88
2023-01-20T08:47:03.378Z,10.02
2023-01-20T08:49:30.219Z,14.27
2023-01-20T08:51:57.227Z,7.97
2023-01-20T08:54:23.970Z,10.00
2023-01-20T08:56:53.945Z,8.65
2023-01-20T08:59:21.287Z,16.80
2023-01-20T09:01:48.015Z,16.42
2023-01-20T09:04:14.691Z,14.57
2023-01-20T09:06:47.022Z,14.77
2023-01-20T09:09:16.106Z,8.00
2023-01-20T09:11:44.999Z,11.18
2023-01-20T09:14:11.706Z,7.57
2023-01-20T09:16:38.379Z,17.80
2023-01-20T09:19:05.012Z,11.50
2023-01-20T09:21:31.602Z,9.40
2023-01-20T09:23:58.202Z,12.85
2023-01-20T09:26:35.452Z,13.48
2023-01-20T09:29:09.226Z,10.73
2023-01-20T09:31:45.236Z,12.02
2023-01-20T09:34:19.521Z,8.10
2023-01-20T09:36:50.197Z,13.02
2023-01-20T09:39:35.751Z,17.67
2023-01-20T09:45:04.576Z,7.65
2023-01-20T09:47:36.424Z,12.65
2023-01-20T09:50:31.201Z,9.82
2023-01-20T09:53:05.861Z,11.90
2023-01-20T09:55:52.740Z,10.63
2023-01-20T09:58:45.440Z,12.23
2023-01-20T10:01:30.843Z,13.85
2023-01-20T10:06:41.376Z,12.30
2023-01-20T10:09:33.564Z,20.27
2023-01-20T10:12:09.402Z,6.53
2023-01-20T10:14:43.806Z,15.38
2023-01-20T10:17:24.258Z,10.15
2023-01-20T10:20:07.703Z,11.32
2023-01-20T10:22:58.315Z,10.32
2023-01-20T10:25:35.968Z,13.68
2023-01-20T10:28:11.999Z,15.77
2023-01-20T10:30:38.535Z,9.73
2023-01-20T10:33:10.948Z,9.93
2023-01-20T10:35:41.505Z,14.90
2023-01-20T10:38:21.008Z,4.65
2023-01-20T10:41:46.029Z,14.55
2023-01-20T10:44:15.755Z,11.73
2023-01-20T10:46:53.340Z,10.25
2023-01-20T10:49:41.429Z,6.63
2023-01-20T10:52:10.938Z,10.55
2023-01-20T10:54:52.222Z,14.48
2023-01-20T10:57:18.987Z,16.52
2023-01-20T10:59:55.773Z,12.98
2023-01-20T11:02:29.933Z,10.88
2023-01-20T11:05:16.706Z,8.70
2023-01-20T11:07:45.159Z,7.95
2023-01-20T11:10:24.842Z,4.50
2023-01-20T11:12:57.515Z,9.60
2023-01-20T11:15:29.303Z,14.38
2023-01-20T11:18:14.088Z,8.13
2023-01-20T11:20:46.646Z,12.57
2023-01-20T11:23:23.854Z,7.93
2023-01-20T11:26:16.279Z,15.23
2023-01-20T11:28:54.163Z,10.63
2023-01-20T11:31:22.419Z,7.63
2023-01-20T11:34:18.063Z,15.02
2023-01-20T11:36:46.184Z,15.43
2023-01-20T11:39:31.084Z,15.05
2023-01-20T11:42:25.291Z,6.85
2023-01-20T11:44:52.877Z,4.65
2023-01-20T11:47:34.762Z,9.45
2023-01-20T11:50:03.999Z,9.65
2023-01-20T11:52:42.629Z,9.18
2023-01-20T11:55:14.988Z,9.13
2023-01-20T11:57:50.463Z,16.88
2023-01-20T12:00:19.970Z,8.30
2023-01-20T12:03:11.755Z,17.60
2023-01-20T12:06:07.305Z,13.25
2023-01-20T12:08:33.684Z,9.02
2023-01-20T12:11:04.658Z,10.63
2023-01-20T12:14:06.841Z,7.63
2023-01-20T12:16:33.701Z,8.23
2023-01-20T12:19:06.656Z,17.70
2023-01-20T12:21:42.791Z,16.85
2023-01-20T12:24:35.457Z,4.47
2023-01-20T12:27:20.594Z,16.30
2023-01-20T12:29:53.631Z,15.13
2023-01-20T12:32:20.193Z,14.80
2023-01-20T12:34:46.677Z,15.88
2023-01-20T12:37:16.847Z,6.68
2023-01-20T12:39:49.373Z,15.68
2023-01-20T12:42:40.277Z,12.07
2023-01-20T12:45:20.986Z,16.98
2023-01-20T12:48:06.057Z,14.88
2023-01-20T12:50:38.630Z,4.57
2023-01-20T12:53:16.739Z,12.55
2023-01-20T12:56:06.745Z,9.95
2023-01-20T12:58:39.892Z,8.18
2023-01-20T13:01:24.881Z,13.65
2023-01-20T13:04:05.555Z,7.30
2023-01-20T13:06:47.309Z,1.58
2023-01-20T13:09:35.593Z,5.50
2023-01-20T13:12:29.800Z,11.60
2023-01-20T13:15:15.175Z,13.80
2023-01-20T13:18:06.136Z,13.50
2023-01-20T13:20:34.893Z,13.82
2023-01-20T13:23:05.390Z,12.57
2023-01-20T13:25:34.337Z,13.10
2023-01-20T13:28:01.460Z,14.82
2023-01-20T13:30:37.247Z,8.98
2023-01-20T13:33:08.573Z,12.50
2023-01-20T13:35:45.135Z,12.35
2023-01-20T13:38:33.287Z,12.25
2023-01-20T13:41:03.455Z,12.68
2023-01-20T13:43:34.541Z,12.20
2023-01-20T13:46:03.906Z,11.20
2023-01-20T13:48:32.569Z,11.38
2023-01-20T13:51:21.875Z,10.93
2023-01-20T13:53:48.447Z,10.43
2023-01-20T13:56:35.232Z,9.98
2023-01-20T13:59:01.764Z,10.25
2023-01-20T14:01:28.396Z,10.13
2023-01-20T14:04:15.613Z,10.77
2023-01-20T14:06:47.748Z,9.20
2023-01-20T14:09:23.888Z,9.90
2023-01-20T14:11:52.720Z,9.88
2023-01-20T14:14:22.350Z,9.68
2023-01-20T14:16:49.535Z,8.80
2023-01-20T14:19:27.924Z,10.05
2023-01-20T14:22:01.756Z,10.25
2023-01-20T14:24:28.996Z,9.10
2023-01-20T14:27:23.468Z,9.25
2023-01-20T14:29:51.790Z,8.70
2023-01-20T14:32:31.772Z,7.72
2023-01-20T14:34:58.536Z,8.75
2023-01-20T14:37:29.818Z,8.93
2023-01-20T14:40:00.148Z,8.20
2023-01-20T14:42:28.408Z,7.57
2023-01-20T14:44:56.782Z,8.50
2023-01-20T14:47:25.241Z,8.73
2023-01-20T14:49:53.580Z,9.35
2023-01-20T14:52:24.540Z,9.45
2023-01-20T14:54:50.969Z,10.77
2023-01-20T14:57:23.157Z,11.13
2023-01-20T15:00:13.478Z,9.40
2023-01-20T15:02:42.761Z,8.98
2023-01-20T15:05:42.774Z,9.18
2023-01-20T15:08:12.099Z,8.73
2023-01-20T15:10:39.347Z,8.57
2023-01-20T15:13:22.903Z,8.43
2023-01-20T15:15:49.481Z,10.43
2023-01-20T15:18:23.357Z,7.80
2023-01-20T15:21:11.742Z,9.63
2023-01-20T15:23:44.105Z,10.30
2023-01-20T15:26:26.631Z,9.25
2023-01-20T15:28:54.101Z,9.35
2023-01-20T15:31:21.010Z,9.52
2023-01-20T15:33:48.195Z,10.40
2023-01-20T15:36:33.093Z,11.23
2023-01-20T15:38:59.577Z,9.30
2023-01-20T15:41:26.039Z,10.57
2023-01-20T15:43:52.566Z,9.50
2023-01-20T15:46:19.520Z,11.10
2023-01-20T15:48:46.318Z,11.27
2023-01-20T15:51:16.228Z,11.50
2023-01-20T15:53:43.744Z,11.15
2023-01-20T15:56:16.347Z,11.48
2023-01-20T15:58:42.800Z,11.70
2023-01-20T16:01:13.994Z,11.40
2023-01-20T16:03:40.942Z,13.98
2023-01-20T16:06:16.654Z,13.18
2023-01-20T16:08:46.341Z,12.77
2023-01-20T16:11:13.833Z,14.05
2023-01-20T16:13:41.007Z,13.50
2023-01-20T16:16:16.771Z,14.93
2023-01-20T16:18:43.647Z,14.95
2023-01-20T16:21:12.455Z,23.52
2023-01-20T16:23:39.103Z,20.40
2023-01-20T16:26:20.006Z,19.02
2023-01-20T16:28:46.467Z,39.80
2023-01-20T16:31:13.507Z,50.50
2023-01-20T16:33:40.096Z,35.20
2023-01-20T16:36:12.217Z,26.52
2023-01-20T16:38:38.985Z,16.38
2023-01-20T16:41:21.706Z,27.08
2023-01-20T16:43:49.275Z,25.70
2023-01-20T16:46:22.357Z,17.25
2023-01-20T16:48:49.728Z,18.15
2023-01-20T16:51:19.596Z,17.98
2023-01-20T16:53:46.263Z,16.92
2023-01-20T16:56:14.771Z,13.80
2023-01-20T16:58:42.305Z,12.57
2023-01-20T17:01:12.241Z,11.90
2023-01-20T17:03:41.597Z,16.98
2023-01-20T17:06:19.431Z,21.85
2023-01-20T17:08:47.372Z,30.83
2023-01-20T17:11:21.291Z,20.48
2023-01-20T17:13:47.863Z,21.98
2023-01-20T17:16:14.481Z,23.38
2023-01-20T17:18:46.983Z,24.10
2023-01-20T17:21:14.176Z,18.83
2023-01-20T17:23:41.188Z,18.20
2023-01-20T17:26:09.317Z,21.40
2023-01-20T17:28:35.849Z,22.92
2023-01-20T17:31:06.487Z,24.38
2023-01-20T17:33:33.740Z,41.75
2023-01-20T17:36:02.924Z,23.85
2023-01-20T17:38:30.742Z,21.20
2023-01-20T17:41:04.680Z,19.58
2023-01-20T17:43:40.011Z,17.13
2023-01-20T17:46:12.540Z,18.90
2023-01-20T17:48:39.170Z,17.38
2023-01-20T17:51:16.977Z,15.00
2023-01-20T17:53:44.700Z,15.88
2023-01-20T17:56:13.558Z,17.50
2023-01-20T17:58:41.984Z,16.10
2023-01-20T18:01:29.598Z,14.20
2023-01-20T18:03:58.751Z,15.95
2023-01-20T18:06:26.754Z,15.10
2023-01-20T18:08:55.731Z,16.00
2023-01-20T18:11:23.962Z,15.38
2023-01-20T18:13:52.391Z,16.25
2023-01-20T18:16:20.714Z,15.20
2023-01-20T18:18:48.684Z,13.73
2023-01-20T18:21:24.272Z,18.90
2023-01-20T18:23:51.791Z,15.02
2023-01-20T18:26:21.397Z,14.50
2023-01-20T18:28:48.376Z,14.07
2023-01-20T18:31:17.731Z,15.20
2023-01-20T18:33:47.587Z,14.95
2023-01-20T18:36:23.492Z,15.20
2023-01-20T18:38:54.629Z,16.92
2023-01-20T18:41:21.312Z,15.25
2023-01-20T18:43:48.729Z,15.40
2023-01-20T18:46:15.721Z,19.00
2023-01-20T18:48:47.372Z,19.83
2023-01-20T18:51:15.580Z,26.05
2023-01-20T18:53:45.631Z,25.77
2023-01-20T18:56:14.706Z,28.75
2023-01-20T18:58:45.673Z,32.38
2023-01-20T19:01:33.841Z,33.22
2023-01-20T19:04:01.704Z,36.85
2023-01-20T19:06:30.650Z,30.50
2023-01-20T19:08:58.805Z,28.15
2023-01-20T19:11:31.286Z,42.65
2023-01-20T19:13:58.796Z,40.50
2023-01-20T19:16:28.692Z,33.17
2023-01-20T19:18:58.239Z,41.63
2023-01-20T19:21:26.138Z,90.80
2023-01-20T19:23:55.454Z,52.95
2023-01-20T19:26:24.022Z,46.65
2023-01-20T19:28:59.889Z,26.98
2023-01-20T19:31:26.496Z,26.15
2023-01-20T19:33:53.104Z,34.95
2023-01-20T19:36:20.245Z,33.40
2023-01-20T19:38:47.437Z,33.63
2023-01-20T19:41:17.247Z,30.77
2023-01-20T19:43:44.984Z,30.15
2023-01-20T19:46:14.358Z,29.10
2023-01-20T19:48:41.435Z,26.70
2023-01-20T19:51:10.831Z,28.48
2023-01-20T19:53:37.877Z,25.13
2023-01-20T19:56:15.766Z,22.40
2023-01-20T19:58:44.247Z,24.20
2023-01-20T20:01:15.093Z,24.77
2023-01-20T20:03:41.840Z,26.02
2023-01-20T20:06:20.032Z,27.15
2023-01-20T20:08:46.515Z,27.45
2023-01-20T20:11:12.963Z,27.85
2023-01-20T20:13:39.407Z,26.08
2023-01-20T20:16:06.012Z,28.60
2023-01-20T20:18:32.671Z,22.52
2023-01-20T20:20:59.676Z,26.20
2023-01-20T20:23:26.512Z,26.98
2023-01-20T20:25:57.835Z,30.40
2023-01-20T20:28:26.807Z,23.63
2023-01-20T20:30:57.209Z,25.23
2023-01-20T20:33:24.604Z,21.85
2023-01-20T20:35:51.220Z,21.80
2023-01-20T20:38:17.681Z,39.30
2023-01-20T20:40:44.186Z,35.30
2023-01-20T20:43:10.649Z,33.95
2023-01-20T20:45:37.128Z,27.70
2023-01-20T20:48:04.490Z,18.77
2023-01-20T20:50:31.238Z,25.67
2023-01-20T20:52:58.417Z,21.98
2023-01-20T20:55:29.239Z,27.42
2023-01-20T20:57:56.472Z,21.38
2023-01-20T21:00:24.992Z,23.13
2023-01-20T21:02:51.451Z,23.33
2023-01-20T21:05:18.965Z,25.40
2023-01-20T21:07:45.623Z,30.10
2023-01-20T21:10:15.604Z,14.10
2023-01-20T21:12:43.900Z,26.70
2023-01-20T21:15:11.365Z,31.25
2023-01-20T21:17:38.807Z,20.80
2023-01-20T21:20:07.099Z,24.30
2023-01-20T21:22:33.946Z,28.75
2023-01-20T21:25:00.472Z,26.15
2023-01-20T21:27:26.966Z,25.13
2023-01-20T21:29:53.431Z,29.45
2023-01-20T21:32:19.955Z,23.80
2023-01-20T21:34:46.431Z,24.48
2023-01-20T21:37:12.927Z,22.08
2023-01-20T21:39:39.413Z,22.90
2023-01-20T21:42:06.104Z,23.60
2023-01-20T21:44:34.014Z,24.65
2023-01-20T21:47:07.979Z,25.35
2023-01-20T21:49:53.368Z,23.42
2023-01-20T21:52:40.632Z,25.33
2023-01-20T21:55:22.546Z,25.33
2023-01-20T21:57:51.328Z,24.67
2023-01-20T22:00:18.699Z,24.00
2023-01-20T22:02:45.745Z,24.20
2023-01-20T22:05:13.342Z,24.40
2023-01-20T22:07:39.845Z,21.65
2023-01-20T22:10:07.824Z,24.77
2023-01-20T22:12:35.532Z,25.08
2023-01-20T22:15:03.298Z,23.75
2023-01-20T22:17:30.425Z,24.30
2023-01-20T22:19:56.945Z,24.63
2023-01-20T22:22:23.560Z,26.48
2023-01-20T22:24:50.132Z,22.17
2023-01-20T22:27:16.648Z,26.42
2023-01-20T22:29:43.114Z,25.50
2023-01-20T22:32:09.548Z,25.70
2023-01-20T22:34:35.996Z,26.58
2023-01-20T22:37:02.521Z,26.15
2023-01-20T22:39:29.309Z,26.35
2023-01-20T22:41:55.848Z,27.90
2023-01-20T22:44:22.323Z,27.00
2023-01-20T22:46:48.879Z,26.73
2023-01-20T22:49:15.339Z,25.70
2023-01-20T22:51:41.873Z,28.40
2023-01-20T22:54:10.575Z,28.50
2023-01-20T22:56:38.954Z,27.85
2023-01-20T22:59:06.249Z,26.45
2023-01-20T23:01:35.221Z,25.83
2023-01-20T23:04:04.951Z,27.98
2023-01-20T23:06:33.391Z,25.73
2023-01-20T23:09:01.309Z,25.33
2023-01-20T23:11:27.949Z,29.60
2023-01-20T23:13:54.475Z,27.08
2023-01-20T23:16:22.685Z,26.08
2023-01-20T23:18:50.721Z,25.15
2023-01-20T23:21:17.956Z,27.50
2023-01-20T23:23:44.847Z,28.33
2023-01-20T23:26:15.889Z,28.35
2023-01-20T23:28:44.456Z,28.42
2023-01-20T23:31:13.572Z,27.67
2023-01-20T23:33:43.541Z,25.90
2023-01-20T23:36:19.000Z,25.60
2023-01-20T23:41:13.119Z,26.30
2023-01-20T23:43:40.383Z,24.75
2023-01-20T23:46:07.186Z,27.63
2023-01-20T23:48:34.863Z,27.00
2023-01-20T23:51:02.060Z,25.67
2023-01-20T23:53:31.273Z,26.42
2023-01-20T23:56:06.651Z,26.88
2023-01-20T23:58:33.283Z,26.80
